sensor_id;sensor_type;location;lat;lon;timestamp;P1;durP1;ratioP1;P2;durP2;ratioP2
79178;SDS011;68608;49.904;16.436;2023-10-19T00:04:42;14.47;;;12.67;;
79178;SDS011;68608;49.904;16.436;2023-10-19T00:10:32;16.37;;;13.73;;
79178;SDS011;68608;49.904;16.436;2023-10-19T00:13:00;15.70;;;13.20;;
79178;SDS011;68608;49.904;16.436;2023-10-19T00:15:34;20.73;;;13.17;;
79178;SDS011;68608;49.904;16.436;2023-10-19T00:18:19;14.60;;;13.07;;
79178;SDS011;68608;49.904;16.436;2023-10-19T00:20:56;17.87;;;14.17;;
79178;SDS011;68608;49.904;16.436;2023-10-19T00:23:36;16.90;;;14.03;;
79178;SDS011;68608;49.904;16.436;2023-10-19T00:26:07;15.30;;;13.60;;
79178;SDS011;68608;49.904;16.436;2023-10-19T00:37:56;14.33;;;11.90;;
79178;SDS011;68608;49.904;16.436;2023-10-19T00:40:42;15.07;;;13.40;;
79178;SDS011;68608;49.904;16.436;2023-10-19T00:45:48;16.63;;;13.80;;
79178;SDS011;68608;49.904;16.436;2023-10-19T00:48:17;13.40;;;12.00;;
79178;SDS011;68608;49.904;16.436;2023-10-19T00:50:48;17.23;;;13.65;;
79178;SDS011;68608;49.904;16.436;2023-10-19T00:53:18;16.17;;;12.50;;
79178;SDS011;68608;49.904;16.436;2023-10-19T00:55:45;15.20;;;13.15;;
79178;SDS011;68608;49.904;16.436;2023-10-19T00:58:17;14.18;;;12.00;;
79178;SDS011;68608;49.904;16.436;2023-10-19T01:00:47;13.63;;;12.20;;
79178;SDS011;68608;49.904;16.436;2023-10-19T01:03:15;14.40;;;13.00;;
79178;SDS011;68608;49.904;16.436;2023-10-19T01:05:44;13.30;;;12.00;;
79178;SDS011;68608;49.904;16.436;2023-10-19T01:08:13;14.83;;;13.13;;
79178;SDS011;68608;49.904;16.436;2023-10-19T01:10:49;15.57;;;13.98;;
79178;SDS011;68608;49.904;16.436;2023-10-19T01:42:06;14.88;;;13.35;;
79178;SDS011;68608;49.904;16.436;2023-10-19T01:44:36;14.00;;;12.68;;
79178;SDS011;68608;49.904;16.436;2023-10-19T01:47:07;14.70;;;12.80;;
79178;SDS011;68608;49.904;16.436;2023-10-19T01:49:33;14.98;;;12.35;;
79178;SDS011;68608;49.904;16.436;2023-10-19T01:54:54;15.95;;;12.70;;
79178;SDS011;68608;49.904;16.436;2023-10-19T01:57:25;13.13;;;11.73;;
79178;SDS011;68608;49.904;16.436;2023-10-19T01:59:51;14.70;;;12.40;;
79178;SDS011;68608;49.904;16.436;2023-10-19T02:02:17;15.38;;;12.82;;
79178;SDS011;68608;49.904;16.436;2023-10-19T02:04:46;14.10;;;12.63;;
79178;SDS011;68608;49.904;16.436;2023-10-19T02:07:16;15.30;;;11.07;;
79178;SDS011;68608;49.904;16.436;2023-10-19T02:09:43;14.48;;;13.00;;
79178;SDS011;68608;49.904;16.436;2023-10-19T02:12:11;13.38;;;12.00;;
79178;SDS011;68608;49.904;16.436;2023-10-19T02:14:38;15.50;;;13.33;;
79178;SDS011;68608;49.904;16.436;2023-10-19T02:17:04;14.20;;;12.73;;
79178;SDS011;68608;49.904;16.436;2023-10-19T02:19:30;13.27;;;11.77;;
79178;SDS011;68608;49.904;16.436;2023-10-19T02:22:06;13.80;;;11.63;;
79178;SDS011;68608;49.904;16.436;2023-10-19T02:24:33;13.55;;;12.18;;
79178;SDS011;68608;49.904;16.436;2023-10-19T02:26:59;13.07;;;11.70;;
79178;SDS011;68608;49.904;16.436;2023-10-19T02:29:29;14.65;;;12.50;;
79178;SDS011;68608;49.904;16.436;2023-10-19T02:31:56;16.43;;;12.67;;
79178;SDS011;68608;49.904;16.436;2023-10-19T02:34:22;14.67;;;11.70;;
79178;SDS011;68608;49.904;16.436;2023-10-19T02:36:48;14.43;;;12.50;;
79178;SDS011;68608;49.904;16.436;2023-10-19T02:39:15;14.23;;;12.23;;
79178;SDS011;68608;49.904;16.436;2023-10-19T02:41:44;13.70;;;12.25;;
79178;SDS011;68608;49.904;16.436;2023-10-19T02:44:13;14.35;;;12.10;;
79178;SDS011;68608;49.904;16.436;2023-10-19T02:46:49;13.73;;;12.30;;
79178;SDS011;68608;49.904;16.436;2023-10-19T02:49:20;14.25;;;11.18;;
79178;SDS011;68608;49.904;16.436;2023-10-19T02:51:50;12.63;;;11.32;;
79178;SDS011;68608;49.904;16.436;2023-10-19T02:54:18;12.90;;;11.45;;
79178;SDS011;68608;49.904;16.436;2023-10-19T02:56:53;12.80;;;11.45;;
79178;SDS011;68608;49.904;16.436;2023-10-19T02:59:25;13.70;;;12.40;;
79178;SDS011;68608;49.904;16.436;2023-10-19T03:01:54;12.77;;;11.35;;
79178;SDS011;68608;49.904;16.436;2023-10-19T03:04:42;14.70;;;12.73;;
79178;SDS011;68608;49.904;16.436;2023-10-19T03:07:18;14.38;;;12.32;;
79178;SDS011;68608;49.904;16.436;2023-10-19T03:09:44;14.13;;;12.63;;
79178;SDS011;68608;49.904;16.436;2023-10-19T03:12:18;13.23;;;11.87;;
79178;SDS011;68608;49.904;16.436;2023-10-19T03:14:44;14.45;;;11.52;;
79178;SDS011;68608;49.904;16.436;2023-10-19T03:17:13;14.63;;;12.55;;
79178;SDS011;68608;49.904;16.436;2023-10-19T03:19:39;15.57;;;12.60;;
79178;SDS011;68608;49.904;16.436;2023-10-19T03:22:05;15.43;;;11.93;;
79178;SDS011;68608;49.904;16.436;2023-10-19T03:24:34;14.47;;;12.23;;
79178;SDS011;68608;49.904;16.436;2023-10-19T03:27:09;12.63;;;10.93;;
79178;SDS011;68608;49.904;16.436;2023-10-19T03:29:48;13.30;;;11.98;;
79178;SDS011;68608;49.904;16.436;2023-10-19T03:32:24;15.63;;;11.50;;
79178;SDS011;68608;49.904;16.436;2023-10-19T03:34:57;13.98;;;12.00;;
79178;SDS011;68608;49.904;16.436;2023-10-19T03:37:28;13.73;;;12.05;;
79178;SDS011;68608;49.904;16.436;2023-10-19T03:39:55;12.82;;;11.43;;
79178;SDS011;68608;49.904;16.436;2023-10-19T03:42:22;15.35;;;13.32;;
79178;SDS011;68608;49.904;16.436;2023-10-19T03:44:51;15.02;;;12.50;;
79178;SDS011;68608;49.904;16.436;2023-10-19T03:47:22;13.35;;;12.05;;
79178;SDS011;68608;49.904;16.436;2023-10-19T03:49:53;13.63;;;12.23;;
79178;SDS011;68608;49.904;16.436;2023-10-19T03:52:19;14.98;;;13.18;;
79178;SDS011;68608;49.904;16.436;2023-10-19T03:54:45;16.00;;;13.35;;
79178;SDS011;68608;49.904;16.436;2023-10-19T03:57:16;13.80;;;11.80;;
79178;SDS011;68608;49.904;16.436;2023-10-19T03:59:47;13.80;;;12.35;;
79178;SDS011;68608;49.904;16.436;2023-10-19T04:02:36;11.77;;;10.57;;
79178;SDS011;68608;49.904;16.436;2023-10-19T04:05:03;19.05;;;11.88;;
79178;SDS011;68608;49.904;16.436;2023-10-19T04:07:30;12.85;;;11.55;;
79178;SDS011;68608;49.904;16.436;2023-10-19T04:09:56;12.82;;;11.52;;
79178;SDS011;68608;49.904;16.436;2023-10-19T04:12:26;17.75;;;12.57;;
79178;SDS011;68608;49.904;16.436;2023-10-19T04:14:54;15.52;;;12.55;;
79178;SDS011;68608;49.904;16.436;2023-10-19T04:17:21;16.08;;;12.80;;
79178;SDS011;68608;49.904;16.436;2023-10-19T04:19:49;13.80;;;11.63;;
79178;SDS011;68608;49.904;16.436;2023-10-19T04:22:17;15.15;;;13.57;;
79178;SDS011;68608;49.904;16.436;2023-10-19T04:24:50;15.65;;;13.48;;
79178;SDS011;68608;49.904;16.436;2023-10-19T04:27:16;13.68;;;12.35;;
79178;SDS011;68608;49.904;16.436;2023-10-19T04:29:46;15.52;;;12.85;;
79178;SDS011;68608;49.904;16.436;2023-10-19T04:32:12;15.73;;;13.52;;
79178;SDS011;68608;49.904;16.436;2023-10-19T04:34:39;15.57;;;14.07;;
79178;SDS011;68608;49.904;16.436;2023-10-19T04:37:06;13.68;;;12.38;;
79178;SDS011;68608;49.904;16.436;2023-10-19T04:40:01;15.85;;;13.82;;
79178;SDS011;68608;49.904;16.436;2023-10-19T04:42:31;16.15;;;12.80;;
79178;SDS011;68608;49.904;16.436;2023-10-19T04:48:12;14.35;;;12.27;;
79178;SDS011;68608;49.904;16.436;2023-10-19T04:50:46;15.30;;;13.63;;
79178;SDS011;68608;49.904;16.436;2023-10-19T04:53:12;16.03;;;12.90;;
79178;SDS011;68608;49.904;16.436;2023-10-19T04:55:38;14.93;;;12.85;;
79178;SDS011;68608;49.904;16.436;2023-10-19T04:58:15;17.60;;;11.93;;
79178;SDS011;68608;49.904;16.436;2023-10-19T05:00:42;14.93;;;13.13;;
79178;SDS011;68608;49.904;16.436;2023-10-19T05:03:08;17.92;;;12.60;;
79178;SDS011;68608;49.904;16.436;2023-10-19T05:05:37;13.93;;;12.20;;
79178;SDS011;68608;49.904;16.436;2023-10-19T05:08:04;15.90;;;13.52;;
79178;SDS011;68608;49.904;16.436;2023-10-19T05:10:30;18.05;;;15.00;;
79178;SDS011;68608;49.904;16.436;2023-10-19T05:12:59;14.25;;;12.68;;
79178;SDS011;68608;49.904;16.436;2023-10-19T05:15:35;15.55;;;13.00;;
79178;SDS011;68608;49.904;16.436;2023-10-19T05:18:01;15.68;;;12.85;;
79178;SDS011;68608;49.904;16.436;2023-10-19T05:20:27;14.93;;;12.15;;
79178;SDS011;68608;49.904;16.436;2023-10-19T05:22:59;13.82;;;12.32;;
79178;SDS011;68608;49.904;16.436;2023-10-19T05:25:32;15.30;;;13.70;;
79178;SDS011;68608;49.904;16.436;2023-10-19T05:27:58;19.35;;;14.48;;
79178;SDS011;68608;49.904;16.436;2023-10-19T05:30:25;16.52;;;13.57;;
79178;SDS011;68608;49.904;16.436;2023-10-19T05:32:51;15.20;;;13.47;;
79178;SDS011;68608;49.904;16.436;2023-10-19T05:35:17;17.70;;;13.48;;
79178;SDS011;68608;49.904;16.436;2023-10-19T05:37:52;14.70;;;13.20;;
79178;SDS011;68608;49.904;16.436;2023-10-19T05:40:21;14.17;;;12.33;;
79178;SDS011;68608;49.904;16.436;2023-10-19T05:42:48;16.93;;;14.57;;
79178;SDS011;68608;49.904;16.436;2023-10-19T05:45:14;17.23;;;14.65;;
79178;SDS011;68608;49.904;16.436;2023-10-19T05:47:42;17.77;;;15.73;;
79178;SDS011;68608;49.904;16.436;2023-10-19T05:50:18;17.58;;;15.20;;
79178;SDS011;68608;49.904;16.436;2023-10-19T05:52:45;14.75;;;13.35;;
79178;SDS011;68608;49.904;16.436;2023-10-19T05:55:16;16.75;;;15.07;;
79178;SDS011;68608;49.904;16.436;2023-10-19T05:57:46;20.30;;;16.13;;
79178;SDS011;68608;49.904;16.436;2023-10-19T06:00:12;17.35;;;15.60;;
79178;SDS011;68608;49.904;16.436;2023-10-19T06:05:59;17.80;;;16.00;;
79178;SDS011;68608;49.904;16.436;2023-10-19T06:08:34;18.63;;;15.80;;
79178;SDS011;68608;49.904;16.436;2023-10-19T06:11:01;20.42;;;15.70;;
79178;SDS011;68608;49.904;16.436;2023-10-19T06:13:27;21.17;;;18.57;;
79178;SDS011;68608;49.904;16.436;2023-10-19T06:15:54;20.50;;;18.30;;
79178;SDS011;68608;49.904;16.436;2023-10-19T06:18:20;21.48;;;19.17;;
79178;SDS011;68608;49.904;16.436;2023-10-19T06:20:46;20.85;;;18.75;;
79178;SDS011;68608;49.904;16.436;2023-10-19T06:23:15;25.73;;;19.90;;
79178;SDS011;68608;49.904;16.436;2023-10-19T06:25:42;20.98;;;18.70;;
79178;SDS011;68608;49.904;16.436;2023-10-19T06:28:09;21.08;;;18.45;;
79178;SDS011;68608;49.904;16.436;2023-10-19T06:30:36;21.30;;;18.98;;
79178;SDS011;68608;49.904;16.436;2023-10-19T06:33:03;18.85;;;16.95;;
79178;SDS011;68608;49.904;16.436;2023-10-19T06:35:29;19.02;;;16.70;;
79178;SDS011;68608;49.904;16.436;2023-10-19T06:38:01;21.83;;;18.63;;
79178;SDS011;68608;49.904;16.436;2023-10-19T06:40:29;21.88;;;19.58;;
79178;SDS011;68608;49.904;16.436;2023-10-19T06:42:58;25.27;;;20.98;;
79178;SDS011;68608;49.904;16.436;2023-10-19T06:45:25;20.88;;;18.67;;
79178;SDS011;68608;49.904;16.436;2023-10-19T06:47:52;21.42;;;19.05;;
79178;SDS011;68608;49.904;16.436;2023-10-19T06:50:22;24.00;;;21.48;;
79178;SDS011;68608;49.904;16.436;2023-10-19T06:52:48;25.17;;;21.25;;
79178;SDS011;68608;49.904;16.436;2023-10-19T06:55:15;23.20;;;20.77;;
79178;SDS011;68608;49.904;16.436;2023-10-19T06:57:46;26.00;;;23.25;;
79178;SDS011;68608;49.904;16.436;2023-10-19T07:00:13;25.67;;;23.00;;
79178;SDS011;68608;49.904;16.436;2023-10-19T07:02:42;25.15;;;22.38;;
79178;SDS011;68608;49.904;16.436;2023-10-19T07:05:09;26.45;;;23.65;;
79178;SDS011;68608;49.904;16.436;2023-10-19T07:07:38;25.50;;;21.77;;
79178;SDS011;68608;49.904;16.436;2023-10-19T07:10:05;28.02;;;25.05;;
79178;SDS011;68608;49.904;16.436;2023-10-19T07:12:33;28.42;;;23.23;;
79178;SDS011;68608;49.904;16.436;2023-10-19T07:14:59;26.38;;;23.13;;
79178;SDS011;68608;49.904;16.436;2023-10-19T07:17:26;31.27;;;27.30;;
79178;SDS011;68608;49.904;16.436;2023-10-19T07:19:52;26.33;;;23.55;;
79178;SDS011;68608;49.904;16.436;2023-10-19T07:22:18;26.30;;;23.60;;
79178;SDS011;68608;49.904;16.436;2023-10-19T07:24:48;28.67;;;25.77;;
79178;SDS011;68608;49.904;16.436;2023-10-19T07:27:14;27.52;;;24.63;;
79178;SDS011;68608;49.904;16.436;2023-10-19T07:29:46;27.20;;;24.05;;
79178;SDS011;68608;49.904;16.436;2023-10-19T07:32:13;26.65;;;23.50;;
79178;SDS011;68608;49.904;16.436;2023-10-19T07:34:42;27.07;;;24.33;;
79178;SDS011;68608;49.904;16.436;2023-10-19T07:37:10;37.30;;;33.47;;
79178;SDS011;68608;49.904;16.436;2023-10-19T07:39:44;27.45;;;24.55;;
79178;SDS011;68608;49.904;16.436;2023-10-19T07:42:10;30.33;;;25.23;;
79178;SDS011;68608;49.904;16.436;2023-10-19T07:44:36;26.63;;;23.92;;
79178;SDS011;68608;49.904;16.436;2023-10-19T07:47:02;29.07;;;23.77;;
79178;SDS011;68608;49.904;16.436;2023-10-19T07:49:28;27.33;;;24.53;;
79178;SDS011;68608;49.904;16.436;2023-10-19T07:51:55;27.80;;;24.83;;
79178;SDS011;68608;49.904;16.436;2023-10-19T07:54:22;35.93;;;30.83;;
79178;SDS011;68608;49.904;16.436;2023-10-19T07:56:48;29.98;;;26.80;;
79178;SDS011;68608;49.904;16.436;2023-10-19T07:59:15;25.53;;;22.93;;
79178;SDS011;68608;49.904;16.436;2023-10-19T08:01:41;25.43;;;21.10;;
79178;SDS011;68608;49.904;16.436;2023-10-19T08:04:07;26.70;;;23.02;;
79178;SDS011;68608;49.904;16.436;2023-10-19T08:06:33;28.33;;;24.23;;
79178;SDS011;68608;49.904;16.436;2023-10-19T08:09:00;26.95;;;24.15;;
79178;SDS011;68608;49.904;16.436;2023-10-19T08:11:26;29.75;;;23.35;;
79178;SDS011;68608;49.904;16.436;2023-10-19T08:13:52;28.38;;;25.58;;
79178;SDS011;68608;49.904;16.436;2023-10-19T08:16:20;26.95;;;24.25;;
79178;SDS011;68608;49.904;16.436;2023-10-19T08:18:46;29.95;;;26.80;;
79178;SDS011;68608;49.904;16.436;2023-10-19T08:21:12;28.40;;;25.50;;
79178;SDS011;68608;49.904;16.436;2023-10-19T08:23:38;30.30;;;26.77;;
79178;SDS011;68608;49.904;16.436;2023-10-19T08:26:05;32.42;;;27.95;;
79178;SDS011;68608;49.904;16.436;2023-10-19T08:28:31;33.53;;;29.92;;
79178;SDS011;68608;49.904;16.436;2023-10-19T08:30:58;42.33;;;37.58;;
79178;SDS011;68608;49.904;16.436;2023-10-19T08:33:27;30.30;;;26.52;;
79178;SDS011;68608;49.904;16.436;2023-10-19T08:35:55;28.98;;;25.88;;
79178;SDS011;68608;49.904;16.436;2023-10-19T08:38:22;31.67;;;25.27;;
79178;SDS011;68608;49.904;16.436;2023-10-19T08:40:52;28.50;;;25.50;;
79178;SDS011;68608;49.904;16.436;2023-10-19T08:43:19;27.88;;;24.98;;
79178;SDS011;68608;49.904;16.436;2023-10-19T08:45:46;29.63;;;26.45;;
79178;SDS011;68608;49.904;16.436;2023-10-19T08:48:12;28.30;;;25.05;;
79178;SDS011;68608;49.904;16.436;2023-10-19T08:50:39;31.98;;;28.55;;
79178;SDS011;68608;49.904;16.436;2023-10-19T08:53:07;31.50;;;28.27;;
79178;SDS011;68608;49.904;16.436;2023-10-19T08:55:39;35.03;;;30.10;;
79178;SDS011;68608;49.904;16.436;2023-10-19T08:58:06;37.97;;;33.85;;
79178;SDS011;68608;49.904;16.436;2023-10-19T09:00:45;34.08;;;30.65;;
79178;SDS011;68608;49.904;16.436;2023-10-19T09:03:18;31.48;;;28.00;;
79178;SDS011;68608;49.904;16.436;2023-10-19T09:05:44;28.20;;;25.40;;
79178;SDS011;68608;49.904;16.436;2023-10-19T09:08:14;38.97;;;34.58;;
79178;SDS011;68608;49.904;16.436;2023-10-19T09:10:42;32.10;;;28.70;;
79178;SDS011;68608;49.904;16.436;2023-10-19T09:13:10;31.38;;;28.00;;
79178;SDS011;68608;49.904;16.436;2023-10-19T09:15:39;30.50;;;27.30;;
79178;SDS011;68608;49.904;16.436;2023-10-19T09:18:16;30.70;;;27.50;;
79178;SDS011;68608;49.904;16.436;2023-10-19T09:20:43;30.77;;;27.42;;
79178;SDS011;68608;49.904;16.436;2023-10-19T09:23:27;30.95;;;27.67;;
79178;SDS011;68608;49.904;16.436;2023-10-19T09:25:57;31.00;;;27.73;;
79178;SDS011;68608;49.904;16.436;2023-10-19T09:28:27;30.25;;;25.38;;
79178;SDS011;68608;49.904;16.436;2023-10-19T09:30:53;32.08;;;28.77;;
79178;SDS011;68608;49.904;16.436;2023-10-19T09:33:21;36.63;;;29.65;;
79178;SDS011;68608;49.904;16.436;2023-10-19T09:35:49;33.85;;;30.17;;
79178;SDS011;68608;49.904;16.436;2023-10-19T09:38:24;30.80;;;27.30;;
79178;SDS011;68608;49.904;16.436;2023-10-19T09:40:51;31.13;;;27.73;;
79178;SDS011;68608;49.904;16.436;2023-10-19T09:43:22;35.47;;;30.35;;
79178;SDS011;68608;49.904;16.436;2023-10-19T09:45:51;32.70;;;29.42;;
79178;SDS011;68608;49.904;16.436;2023-10-19T09:48:19;32.60;;;29.17;;
79178;SDS011;68608;49.904;16.436;2023-10-19T09:50:48;36.20;;;31.05;;
79178;SDS011;68608;49.904;16.436;2023-10-19T09:53:17;34.03;;;30.40;;
79178;SDS011;68608;49.904;16.436;2023-10-19T09:55:43;35.67;;;31.80;;
79178;SDS011;68608;49.904;16.436;2023-10-19T09:58:16;35.50;;;31.85;;
79178;SDS011;68608;49.904;16.436;2023-10-19T10:00:49;38.10;;;33.97;;
79178;SDS011;68608;49.904;16.436;2023-10-19T10:06:03;37.78;;;33.88;;
79178;SDS011;68608;49.904;16.436;2023-10-19T10:08:29;37.17;;;31.13;;
79178;SDS011;68608;49.904;16.436;2023-10-19T10:10:56;36.45;;;32.45;;
79178;SDS011;68608;49.904;16.436;2023-10-19T10:15:55;39.15;;;34.58;;
79178;SDS011;68608;49.904;16.436;2023-10-19T10:18:26;36.75;;;32.88;;
79178;SDS011;68608;49.904;16.436;2023-10-19T10:21:12;38.53;;;34.45;;
79178;SDS011;68608;49.904;16.436;2023-10-19T10:23:58;39.10;;;35.00;;
79178;SDS011;68608;49.904;16.436;2023-10-19T10:26:26;39.05;;;34.80;;
79178;SDS011;68608;49.904;16.436;2023-10-19T10:29:13;37.33;;;33.55;;
79178;SDS011;68608;49.904;16.436;2023-10-19T10:31:45;39.03;;;34.67;;
79178;SDS011;68608;49.904;16.436;2023-10-19T10:34:41;39.30;;;35.03;;
79178;SDS011;68608;49.904;16.436;2023-10-19T10:36:59;41.42;;;36.15;;
79178;SDS011;68608;49.904;16.436;2023-10-19T10:39:27;41.88;;;37.67;;
79178;SDS011;68608;49.904;16.436;2023-10-19T10:41:57;44.30;;;39.40;;
79178;SDS011;68608;49.904;16.436;2023-10-19T10:47:12;45.20;;;40.50;;
79178;SDS011;68608;49.904;16.436;2023-10-19T10:49:54;48.28;;;42.45;;
79178;SDS011;68608;49.904;16.436;2023-10-19T10:52:27;46.40;;;41.22;;
79178;SDS011;68608;49.904;16.436;2023-10-19T10:55:06;49.40;;;43.38;;
79178;SDS011;68608;49.904;16.436;2023-10-19T10:57:34;50.80;;;45.10;;
79178;SDS011;68608;49.904;16.436;2023-10-19T11:02:33;53.83;;;45.45;;
79178;SDS011;68608;49.904;16.436;2023-10-19T11:05:00;49.22;;;41.20;;
79178;SDS011;68608;49.904;16.436;2023-10-19T11:07:28;53.80;;;44.60;;
79178;SDS011;68608;49.904;16.436;2023-10-19T11:09:54;48.28;;;41.70;;
79178;SDS011;68608;49.904;16.436;2023-10-19T11:12:23;48.70;;;43.63;;
79178;SDS011;68608;49.904;16.436;2023-10-19T11:14:53;48.53;;;43.33;;
79178;SDS011;68608;49.904;16.436;2023-10-19T11:17:19;45.10;;;39.70;;
79178;SDS011;68608;49.904;16.436;2023-10-19T11:19:49;42.78;;;38.22;;
79178;SDS011;68608;49.904;16.436;2023-10-19T11:22:15;47.35;;;40.75;;
79178;SDS011;68608;49.904;16.436;2023-10-19T11:24:41;42.00;;;37.33;;
79178;SDS011;68608;49.904;16.436;2023-10-19T11:27:08;47.13;;;39.50;;
79178;SDS011;68608;49.904;16.436;2023-10-19T11:29:37;46.97;;;41.13;;
79178;SDS011;68608;49.904;16.436;2023-10-19T11:32:03;42.38;;;37.28;;
79178;SDS011;68608;49.904;16.436;2023-10-19T11:34:31;41.70;;;37.13;;
79178;SDS011;68608;49.904;16.436;2023-10-19T11:36:59;42.13;;;37.60;;
79178;SDS011;68608;49.904;16.436;2023-10-19T11:39:30;44.70;;;39.67;;
79178;SDS011;68608;49.904;16.436;2023-10-19T11:41:57;40.38;;;34.72;;
79178;SDS011;68608;49.904;16.436;2023-10-19T11:44:32;47.15;;;42.05;;
79178;SDS011;68608;49.904;16.436;2023-10-19T11:46:58;45.38;;;39.88;;
79178;SDS011;68608;49.904;16.436;2023-10-19T11:49:28;46.22;;;39.72;;
79178;SDS011;68608;49.904;16.436;2023-10-19T11:51:54;45.53;;;40.78;;
79178;SDS011;68608;49.904;16.436;2023-10-19T11:54:21;45.92;;;40.53;;
79178;SDS011;68608;49.904;16.436;2023-10-19T11:56:47;44.88;;;37.50;;
79178;SDS011;68608;49.904;16.436;2023-10-19T11:59:14;47.58;;;39.28;;
79178;SDS011;68608;49.904;16.436;2023-10-19T12:01:40;43.38;;;38.38;;
79178;SDS011;68608;49.904;16.436;2023-10-19T12:04:10;49.35;;;40.72;;
79178;SDS011;68608;49.904;16.436;2023-10-19T12:06:36;48.08;;;41.17;;
79178;SDS011;68608;49.904;16.436;2023-10-19T12:09:02;48.80;;;43.53;;
79178;SDS011;68608;49.904;16.436;2023-10-19T12:11:40;46.10;;;41.17;;
79178;SDS011;68608;49.904;16.436;2023-10-19T12:14:12;48.08;;;42.85;;
79178;SDS011;68608;49.904;16.436;2023-10-19T12:16:40;48.85;;;41.60;;
79178;SDS011;68608;49.904;16.436;2023-10-19T12:19:10;47.45;;;42.30;;
79178;SDS011;68608;49.904;16.436;2023-10-19T12:21:36;48.75;;;43.40;;
79178;SDS011;68608;49.904;16.436;2023-10-19T12:24:06;44.60;;;39.75;;
79178;SDS011;68608;49.904;16.436;2023-10-19T12:26:35;43.72;;;39.00;;
79178;SDS011;68608;49.904;16.436;2023-10-19T12:29:11;44.60;;;39.35;;
79178;SDS011;68608;49.904;16.436;2023-10-19T12:31:39;47.95;;;39.92;;
79178;SDS011;68608;49.904;16.436;2023-10-19T12:34:09;47.58;;;40.50;;
79178;SDS011;68608;49.904;16.436;2023-10-19T12:36:36;47.00;;;41.42;;
79178;SDS011;68608;49.904;16.436;2023-10-19T12:39:06;49.45;;;44.13;;
79178;SDS011;68608;49.904;16.436;2023-10-19T12:41:32;48.05;;;42.85;;
79178;SDS011;68608;49.904;16.436;2023-10-19T12:43:59;50.88;;;42.25;;
79178;SDS011;68608;49.904;16.436;2023-10-19T12:46:37;47.45;;;42.35;;
79178;SDS011;68608;49.904;16.436;2023-10-19T12:49:19;46.63;;;41.53;;
79178;SDS011;68608;49.904;16.436;2023-10-19T12:51:51;48.65;;;42.17;;
79178;SDS011;68608;49.904;16.436;2023-10-19T12:54:17;43.67;;;38.80;;
79178;SDS011;68608;49.904;16.436;2023-10-19T12:56:43;46.83;;;42.00;;
79178;SDS011;68608;49.904;16.436;2023-10-19T12:59:09;46.40;;;41.63;;
79178;SDS011;68608;49.904;16.436;2023-10-19T13:01:36;48.03;;;42.88;;
79178;SDS011;68608;49.904;16.436;2023-10-19T13:04:05;45.53;;;40.63;;
79178;SDS011;68608;49.904;16.436;2023-10-19T13:06:41;50.65;;;41.22;;
79178;SDS011;68608;49.904;16.436;2023-10-19T13:09:07;46.83;;;41.70;;
79178;SDS011;68608;49.904;16.436;2023-10-19T13:11:34;46.35;;;41.38;;
79178;SDS011;68608;49.904;16.436;2023-10-19T13:14:03;45.42;;;40.30;;
79178;SDS011;68608;49.904;16.436;2023-10-19T13:16:34;44.83;;;39.88;;
79178;SDS011;68608;49.904;16.436;2023-10-19T13:19:06;47.55;;;40.92;;
79178;SDS011;68608;49.904;16.436;2023-10-19T13:21:40;46.72;;;41.13;;
79178;SDS011;68608;49.904;16.436;2023-10-19T13:24:08;46.33;;;41.45;;
79178;SDS011;68608;49.904;16.436;2023-10-19T13:26:35;46.63;;;39.97;;
79178;SDS011;68608;49.904;16.436;2023-10-19T13:29:03;45.30;;;40.05;;
79178;SDS011;68608;49.904;16.436;2023-10-19T13:31:33;45.20;;;40.25;;
79178;SDS011;68608;49.904;16.436;2023-10-19T13:34:00;48.00;;;42.55;;
79178;SDS011;68608;49.904;16.436;2023-10-19T13:36:35;48.92;;;43.67;;
79178;SDS011;68608;49.904;16.436;2023-10-19T13:39:04;49.28;;;41.53;;
79178;SDS011;68608;49.904;16.436;2023-10-19T13:41:31;47.22;;;41.88;;
79178;SDS011;68608;49.904;16.436;2023-10-19T13:43:58;49.00;;;42.72;;
79178;SDS011;68608;49.904;16.436;2023-10-19T13:46:26;49.25;;;43.20;;
79178;SDS011;68608;49.904;16.436;2023-10-19T13:48:54;47.55;;;41.33;;
79178;SDS011;68608;49.904;16.436;2023-10-19T13:51:23;48.60;;;43.30;;
79178;SDS011;68608;49.904;16.436;2023-10-19T13:53:50;50.83;;;44.22;;
79178;SDS011;68608;49.904;16.436;2023-10-19T13:56:19;48.67;;;43.42;;
79178;SDS011;68608;49.904;16.436;2023-10-19T13:58:47;48.85;;;43.47;;
79178;SDS011;68608;49.904;16.436;2023-10-19T14:01:14;49.60;;;43.42;;
79178;SDS011;68608;49.904;16.436;2023-10-19T14:03:43;48.13;;;42.85;;
79178;SDS011;68608;49.904;16.436;2023-10-19T14:06:25;48.72;;;43.13;;
79178;SDS011;68608;49.904;16.436;2023-10-19T14:08:52;49.97;;;41.47;;
79178;SDS011;68608;49.904;16.436;2023-10-19T14:11:18;47.05;;;41.88;;
79178;SDS011;68608;49.904;16.436;2023-10-19T14:13:47;48.63;;;42.85;;
79178;SDS011;68608;49.904;16.436;2023-10-19T14:16:20;48.33;;;43.03;;
79178;SDS011;68608;49.904;16.436;2023-10-19T14:18:48;50.35;;;45.22;;
79178;SDS011;68608;49.904;16.436;2023-10-19T14:21:17;51.17;;;45.78;;
79178;SDS011;68608;49.904;16.436;2023-10-19T14:23:45;49.40;;;44.15;;
79178;SDS011;68608;49.904;16.436;2023-10-19T14:26:13;49.45;;;42.88;;
79178;SDS011;68608;49.904;16.436;2023-10-19T14:28:42;46.83;;;41.80;;
79178;SDS011;68608;49.904;16.436;2023-10-19T14:31:15;53.78;;;47.92;;
79178;SDS011;68608;49.904;16.436;2023-10-19T14:33:44;53.33;;;46.05;;
79178;SDS011;68608;49.904;16.436;2023-10-19T14:36:13;54.78;;;48.85;;
79178;SDS011;68608;49.904;16.436;2023-10-19T14:38:39;48.28;;;43.40;;
79178;SDS011;68608;49.904;16.436;2023-10-19T14:41:13;53.67;;;46.80;;
79178;SDS011;68608;49.904;16.436;2023-10-19T14:43:40;53.50;;;46.70;;
79178;SDS011;68608;49.904;16.436;2023-10-19T14:46:16;51.58;;;46.00;;
79178;SDS011;68608;49.904;16.436;2023-10-19T14:48:43;52.47;;;45.95;;
79178;SDS011;68608;49.904;16.436;2023-10-19T14:51:10;54.08;;;45.53;;
79178;SDS011;68608;49.904;16.436;2023-10-19T14:53:38;52.00;;;46.42;;
79178;SDS011;68608;49.904;16.436;2023-10-19T14:56:04;49.83;;;43.15;;
79178;SDS011;68608;49.904;16.436;2023-10-19T14:58:33;51.95;;;45.05;;
79178;SDS011;68608;49.904;16.436;2023-10-19T15:01:04;56.15;;;47.97;;
79178;SDS011;68608;49.904;16.436;2023-10-19T15:03:47;48.30;;;41.92;;
79178;SDS011;68608;49.904;16.436;2023-10-19T15:06:14;57.50;;;47.17;;
79178;SDS011;68608;49.904;16.436;2023-10-19T15:11:42;54.85;;;45.95;;
79178;SDS011;68608;49.904;16.436;2023-10-19T15:14:11;53.28;;;46.92;;
79178;SDS011;68608;49.904;16.436;2023-10-19T15:16:48;49.35;;;44.03;;
79178;SDS011;68608;49.904;16.436;2023-10-19T15:19:17;50.90;;;45.53;;
79178;SDS011;68608;49.904;16.436;2023-10-19T15:21:48;54.67;;;48.97;;
79178;SDS011;68608;49.904;16.436;2023-10-19T15:24:27;52.55;;;45.83;;
79178;SDS011;68608;49.904;16.436;2023-10-19T15:26:56;47.65;;;42.33;;
79178;SDS011;68608;49.904;16.436;2023-10-19T15:29:25;53.35;;;44.53;;
79178;SDS011;68608;49.904;16.436;2023-10-19T15:31:57;49.42;;;44.10;;